Latest Coastal Weather Observations for Kurnell

IDN60701

Issued at 3:41 am EST Wednesday 26 June 2019 (issued every 10 minutes, with the page automatically refreshed every 10 minutes)

About coastal observations | Map of coastal stations | Coastal observations for NSW | Marine services | Other Formats
Station Details ID: 066043 Name: KURNELL AWS Lat: -34.00 Lon: 151.21 Height: 4.0 m
Data from the previous 72 hours. | See also: Recent months at Kurnell
Date/Time
EST
Wind Sea
Height
m
Swell Vis
km
Cloud Weather Temp
°C
Press
hPa
Rain since
9am
mm
Dir  Spd
kts
Gust
kts
Height
m
Period
s
Dir
26/03:30am S 7 9 - - - - - - - - - -
26/03:00am S 10 14 - - - - - - - - - -
26/02:30am SSE 10 18 - - - - - - - - - -
26/02:00am SSE 11 15 - - - - - - - - - -
26/01:30am S 11 16 - - - - - - - - - -
26/01:00am SSE 11 16 - - - - - - - - - -
26/12:30am E 8 14 - - - - - - - - - -
26/12:00am SSE 7 10 - - - - - - - - - -
 
Date/Time
EST
Wind Sea
Height
m
Swell Vis
km
Cloud Weather Temp
°C
Press
hPa
Rain since
9am
mm
Dir  Spd
kts
Gust
kts
Height
m
Period
s
Dir
25/11:30pm S 9 12 - - - - - - - - - -
25/11:00pm SSE 7 12 - - - - - - - - - -
25/10:30pm SSE 9 17 - - - - - - - - - -
25/10:00pm SSE 11 15 - - - - - - - - - -
25/09:30pm SSE 13 18 - - - - - - - - - -
25/09:00pm S 13 17 - - - - - - - - - -
25/08:30pm SSE 13 17 - - - - - - - - - -
25/08:00pm SSE 11 18 - - - - - - - - - -
25/07:30pm SSE 12 18 - - - - - - - - - -
25/07:00pm SSE 12 16 - - - - - - - - - -
25/06:30pm SSE 12 17 - - - - - - - - - -
25/06:00pm SSE 10 15 - - - - - - - - - -
25/05:30pm SSE 11 15 - - - - - - - - - -
25/05:00pm SSE 9 14 - - - - - - - - - -
25/04:30pm SSW 8 12 - - - - - - - - - -
25/04:00pm SSE 11 17 - - - - - - - - - -
25/03:30pm S 13 18 - - - - - - - - - -
25/03:00pm SSW 12 17 - - - - - - - - - -
25/02:30pm SSW 10 13 - - - - - - - - - -
25/02:00pm S 13 16 - - - - - - - - - -
25/01:30pm S 13 18 - - - - - - - - - -
25/01:00pm SSW 13 17 - - - - - - - - - -
25/12:30pm S 13 18 - - - - - - - - - -
25/12:00pm S 12 17 - - - - - - - - - -
25/11:30am SSE 11 15 - - - - - - - - - -
25/11:00am SSE 13 17 - - - - - - - - - -
25/10:30am SSE 13 17 - - - - - - - - - -
25/10:00am SE 11 17 - - - - - - - - - -
25/09:30am S 7 11 - - - - - - - - - -
25/09:00am SSE 8 12 - - - - - - - - - -
25/08:30am SE 10 14 - - - - - - - - - -
25/08:00am S 10 15 - - - - - - - - - -
25/07:30am SW 7 9 - - - - - - - - - -
25/07:00am SSE 5 8 - - - - - - - - - -
25/06:30am SW 10 14 - - - - - - - - - -
25/06:00am SSW 10 15 - - - - - - - - - -
25/05:30am SSE 8 12 - - - - - - - - - -
25/05:00am SE 11 18 - - - - - - - - - -
25/04:30am SE 12 17 - - - - - - - - - -
25/04:00am SE 11 15 - - - - - - - - - -
25/03:30am SE 11 16 - - - - - - - - - -
25/03:00am SSE 10 14 - - - - - - - - - -
25/02:30am SSE 8 11 - - - - - - - - - -
25/02:00am ESE 10 16 - - - - - - - - - -
25/01:30am ESE 12 16 - - - - - - - - - -
25/01:00am ESE 9 14 - - - - - - - - - -
25/12:30am ESE 9 14 - - - - - - - - - -
25/12:00am S 8 10 - - - - - - - - - -
 
Date/Time
EST
Wind Sea
Height
m
Swell Vis
km
Cloud Weather Temp
°C
Press
hPa
Rain since
9am
mm
Dir  Spd
kts
Gust
kts
Height
m
Period
s
Dir
24/11:30pm SE 5 8 - - - - - - - - - -
24/11:00pm S 10 13 - - - - - - - - - -
24/10:30pm ESE 11 15 - - - - - - - - - -
24/10:00pm SE 11 15 - - - - - - - - - -
24/09:30pm S 10 17 - - - - - - - - - -
24/09:00pm S 12 16 - - - - - - - - - -
24/08:30pm SSE 13 16 - - - - - - - - - -
24/08:00pm SE 9 14 - - - - - - - - - -
24/07:30pm SSE 10 17 - - - - - - - - - -
24/07:00pm SSE 10 13 - - - - - - - - - -
24/06:30pm SSE 9 13 - - - - - - - - - -
24/06:00pm SSE 12 17 - - - - - - - - - -
24/05:30pm SSE 13 17 - - - - - - - - - -
24/05:00pm SSE 11 16 - - - - - - - - - -
24/04:30pm SSE 11 15 - - - - - - - - - -
24/04:00pm SSE 13 18 - - - - - - - - - -
24/03:30pm SSW 13 20 - - - - - - - - - -
24/03:00pm SSW 13 17 - - - - - - - - - -
24/02:30pm SSW 16 21 - - - - - - - - - -
24/02:00pm SSW 16 22 - - - - - - - - - -
24/01:30pm S 17 23 - - - - - - - - - -
24/01:00pm S 18 24 - - - - - - - - - -
24/12:30pm S 16 25 - - - - - - - - - -
24/12:08pm SSE 15 25 - - - - - - - - - -
24/12:00pm S 15 23 - - - - - - - - - -
24/11:30am S 18 23 - - - - - - - - - -
24/11:00am SSW 17 22 - - - - - - - - - -
24/10:30am SSW 14 20 - - - - - - - - - -
24/10:01am SSW 16 26 - - - - - - - - - -
24/10:00am SSW 17 26 - - - - - - - - - -
24/09:30am SSW 15 27 - - - - - - - - - -
24/09:04am SSW 15 25 - - - - - - - - - -
24/09:00am SSW 15 20 - - - - - - - - - -
24/08:30am SSW 19 26 - - - - - - - - - -
24/08:06am SW 16 26 - - - - - - - - - -
24/08:00am SW 14 19 - - - - - - - - - -
24/07:30am SW 17 26 - - - - - - - - - -
24/07:23am SSW 16 26 - - - - - - - - - -
24/07:00am SW 14 20 - - - - - - - - - -
24/06:30am SW 14 17 - - - - - - - - - -
24/06:00am SW 16 20 - - - - - - - - - -
24/05:30am SW 15 19 - - - - - - - - - -
24/05:00am SW 15 20 - - - - - - - - - -
24/04:30am SSW 15 19 - - - - - - - - - -
24/04:00am SSW 14 17 - - - - - - - - - -
24/03:30am WSW 13 16 - - - - - - - - - -
24/03:00am SSW 12 22 - - - - - - - - - -
24/02:30am S 12 17 - - - - - - - - - -
24/02:00am SW 14 17 - - - - - - - - - -
24/01:30am SSW 17 21 - - - - - - - - - -
24/01:11am SSW 18 28 - - - - - - - - - -
24/01:00am SSW 20 28 - - - - - - - - - -
24/12:53am SW 18 28 - - - - - - - - - -
24/12:30am SW 19 26 - - - - - - - - - -
24/12:00am SW 16 22 - - - - - - - - - -
 
Date/Time
EST
Wind Sea
Height
m
Swell Vis
km
Cloud Weather Temp
°C
Press
hPa
Rain since
9am
mm
Dir  Spd
kts
Gust
kts
Height
m
Period
s
Dir
23/11:30pm N 8 14 - - - - - - - - - -
23/11:00pm SW 13 20 - - - - - - - - - -
23/10:30pm SW 15 19 - - - - - - - - - -
23/10:00pm SW 16 20 - - - - - - - - - -
23/09:30pm SW 18 24 - - - - - - - - - -
23/09:00pm SW 20 27 - - - - - - - - - -
23/08:30pm SW 19 26 - - - - - - - - - -
23/08:00pm SW 18 22 - - - - - - - - - -
23/07:30pm SW 20 28 - - - - - - - - - -
23/07:00pm SW 20 26 - - - - - - - - - -
23/06:30pm SW 18 23 - - - - - - - - - -
23/06:00pm SW 20 26 - - - - - - - - - -
23/05:30pm SW 18 26 - - - - - - - - - -
23/05:00pm SW 17 24 - - - - - - - - - -
23/04:30pm SW 17 24 - - - - - - - - - -
23/04:00pm SSW 22 29 - - - - - - - - - -
23/03:30pm SSW 19 27 - - - - - - - - - -
23/03:00pm SSW 17 22 - - - - - - - - - -
23/02:30pm SSW 19 26 - - - - - - - - - -
23/02:00pm SSW 21 27 - - - - - - - - - -
23/01:30pm SW 20 27 - - - - - - - - - -
23/01:00pm SSW 18 27 - - - - - - - - - -
23/12:30pm SSW 18 24 - - - - - - - - - -
23/12:00pm SSW 16 21 - - - - - - - - - -
23/11:30am SW 17 24 - - - - - - - - - -
23/11:00am SSW 18 23 - - - - - - - - - -
23/10:30am SSW 18 25 - - - - - - - - - -
23/10:00am SSW 18 26 - - - - - - - - - -
23/09:30am SSW 20 27 - - - - - - - - - -
23/09:00am SSW 21 28 - - - - - - - - - -
23/08:30am SSW 20 27 - - - - - - - - - -
23/08:10am SSW 19 29 - - - - - - - - - -
23/08:00am SSW 19 27 - - - - - - - - - -
23/07:31am SSW 20 30 - - - - - - - - - -
23/07:30am SSW 21 30 - - - - - - - - - -
23/07:13am SSW 20 30 - - - - - - - - - -
23/07:00am SSW 20 29 - - - - - - - - - -
23/06:43am SSW 19 29 - - - - - - - - - -
23/06:30am SSW 20 26 - - - - - - - - - -
23/06:00am SSW 20 29 - - - - - - - - - -
23/05:30am SSW 21 28 - - - - - - - - - -
23/05:00am SSW 21 30 - - - - - - - - - -
23/04:30am SSW 19 25 - - - - - - - - - -
23/04:00am SW 15 22 - - - - - - - - - -

Other formats

Comma delimited format used in spreadsheet applications
http://www.bom.gov.au/fwo/IDN60701/IDN60701.95756.axf

JavaScript Object Notation format (JSON) in row-major order
http://www.bom.gov.au/fwo/IDN60701/IDN60701.95756.json

Data quality

Most of these data are generated automatically and are frequently updated. Quality checks on data are not normally performed. It is possible for incorrect values to appear. Refer to information at About Latest Weather Observations and please check the disclaimer before using these data.